MMMZ/MZT METAR and TAF weather

Enter ICAO airport designator
Station Type Date Time Source
MMMZ METAR 2019/04/20 17:47 UTC NOAA

MMMZ 201747Z 25005KT 15SM FEW250 28/20 A2999 RMK SLP151 52003 940 8/001


Station Type Date Time Source
MMMZ Decoded METAR 2019/04/20 17:47 UTC NOAA

Mazatlan / G. Buelna, Mexico (MMMZ) 23-10N 106-16W
Apr 20, 2019 - 01:47 PM EDT / 2019.04.20 1747 UTC
Wind: from the WSW (250 degrees) at 6 MPH (5 KT):0
Visibility: 15 mile(s):0
Sky conditions: mostly clear
Temperature: 82 F (28 C)
Dew Point: 68 F (20 C)
Relative Humidity: 61%
Pressure (altimeter): 29.99 in. Hg (1015 hPa)
Pressure tendency: 0.01 inches (0.3 hPa) higher than three hours ago
ob: MMMZ 201747Z 25005KT 15SM FEW250 28/20 A2999 RMK SLP151 52003 940 8/001
cycle: 18

Station Type Date Time Source
MMMZ TAF 2019/04/20 18:40 UTC NOAA

TAF MMMZ 201633Z 2018/2124 20010KT P6SM SCT020 SCT230 TX31/2021Z TN19/2112Z
BECMG 2101/2102 00000KT
FM211200 00000KT 4SM HZ OVC020
FM211700 20010KT P6SM SCT030

Example: see airport list